Time;durP1;ratioP1;P1;durP2;ratioP2;P2;SDS_P1;SDS_P2;PMS_P1;PMS_P2;Temp;Humidity;BMP_temperature;BMP_pressure;BME280_temperature;BME280_humidity;BME280_pressure;Samples;Min_cycle;Max_cycle;Signal;HPM_P1;HPM_P2
2021/08/08 00:04:04;;;;;;;2.83;2.53;;;;;;;21.55;62.80;97738.95;262940;1089;22839;-75
2021/08/08 00:09:19;;;;;;;2.70;2.37;;;;;;;21.53;62.96;97742.03;263018;1089;25941;-75
2021/08/08 00:14:36;;;;;;;;;;;;;;;21.51;62.72;97736.95;262645;1088;24145;-75
2021/08/08 00:19:46;;;;;;;2.98;2.28;;;;;;;21.55;63.06;97738.95;262897;1088;21453;-76
2021/08/08 00:24:52;;;;;;;2.93;2.37;;;;;;;21.56;62.79;97748.66;262980;1088;22926;-75
2021/08/08 00:29:58;;;;;;;3.18;2.18;;;;;;;21.53;62.88;97721.04;262881;1089;25298;-77
2021/08/08 00:35:03;;;;;;;3.25;2.20;;;;;;;21.49;62.68;97717.50;262890;1090;22754;-76
2021/08/08 00:40:07;;;;;;;2.53;2.20;;;;;;;21.46;62.74;97714.75;263009;1089;22859;-76
2021/08/08 00:45:13;;;;;;;2.30;2.10;;;;;;;21.47;62.97;97725.27;263073;1088;25755;-75
2021/08/08 00:50:17;;;;;;;2.95;2.30;;;;;;;21.47;62.89;97733.44;263079;1089;22795;-75
2021/08/08 00:55:21;;;;;;;3.03;2.20;;;;;;;21.45;63.15;97746.68;262939;1089;22827;-74
2021/08/08 01:00:28;;;;;;;2.05;1.85;;;;;;;21.42;63.31;97750.18;262610;1088;22817;-76
2021/08/08 01:05:40;;;;;;;3.20;1.68;;;;;;;21.43;63.57;97756.39;263092;1089;24373;-75
2021/08/08 01:10:54;;;;;;;2.40;2.20;;;;;;;21.47;64.01;97763.41;262991;1088;22799;-75
2021/08/08 01:16:02;;;;;;;3.88;2.70;;;;;;;21.49;64.05;97763.81;262694;1090;25899;-76
2021/08/08 01:21:09;;;;;;;5.33;3.58;;;;;;;21.52;64.14;97763.06;262957;1088;22939;-75
2021/08/08 01:26:13;;;;;;;3.63;2.25;;;;;;;21.58;64.02;97768.14;263130;1089;22775;-75
2021/08/08 01:31:18;;;;;;;2.35;2.13;;;;;;;21.58;64.40;97763.47;262933;1089;22820;-75
2021/08/08 01:36:23;;;;;;;2.30;2.10;;;;;;;21.58;64.86;97770.88;262941;1090;23047;-75
2021/08/08 01:41:42;;;;;;;7.13;2.25;;;;;;;21.62;64.44;97779.83;262781;1088;22940;-75
2021/08/08 01:47:05;;;;;;;5.13;1.80;;;;;;;21.74;64.40;97789.58;262599;1088;22812;-75
2021/08/08 01:52:11;;;;;;;2.53;2.20;;;;;;;21.90;64.69;97800.13;263174;1089;22782;-75
2021/08/08 01:57:22;;;;;;;3.87;2.37;;;;;;;22.08;65.00;97813.75;262709;1089;24354;-75
2021/08/08 02:03:05;;;;;;;3.08;2.28;;;;;;;22.16;65.23;97818.84;262551;1090;24054;-75
2021/08/08 02:08:30;;;;;;;4.47;2.17;;;;;;;22.20;65.54;97846.11;262867;1088;24428;-74
2021/08/08 02:13:49;;;;;;;1.95;1.60;;;;;;;22.08;65.01;97852.73;263099;1090;25915;-75
2021/08/08 02:19:09;;;;;;;2.00;1.27;;;;;;;21.86;65.23;97858.13;262427;1090;22809;-75
2021/08/08 02:24:24;;;;;;;2.15;1.30;;;;;;;21.72;65.17;97869.00;262860;1089;24067;-75
2021/08/08 02:29:51;;;;;;;0.70;0.70;;;;;;;21.49;65.36;97880.17;262791;1089;23032;-75
2021/08/08 02:34:55;;;;;;;0.65;0.60;;;;;;;21.23;65.67;97895.63;263096;1089;25325;-76
2021/08/08 02:40:00;;;;;;;4.75;0.80;;;;;;;21.01;65.75;97906.40;262928;1089;23105;-74
2021/08/08 02:45:03;;;;;;;4.33;0.60;;;;;;;20.79;66.66;97929.16;262893;1090;22795;-75
2021/08/08 02:50:11;;;;;;;0.50;0.50;;;;;;;20.59;66.75;97944.91;263086;1090;22839;-75
2021/08/08 02:55:14;;;;;;;0.95;0.48;;;;;;;20.41;67.28;97959.14;262967;1089;22783;-75
2021/08/08 03:00:24;;;;;;;0.40;0.40;;;;;;;20.18;67.99;97973.66;263027;1089;23584;-76
2021/08/08 03:05:28;;;;;;;0.57;0.50;;;;;;;20.00;68.36;97991.70;263028;1089;26043;-76
2021/08/08 03:10:31;;;;;;;0.40;0.37;;;;;;;19.87;68.34;98021.06;262988;1089;22754;-76
2021/08/08 03:15:35;;;;;;;0.55;0.50;;;;;;;19.74;69.32;98047.65;263063;1089;23413;-74
2021/08/08 03:20:39;;;;;;;0.20;0.20;;;;;;;19.63;68.42;98058.36;262937;1088;25777;-74
2021/08/08 03:25:42;;;;;;;0.55;0.50;;;;;;;19.51;68.15;98083.00;262838;1089;25746;-74
2021/08/08 03:30:46;;;;;;;0.20;0.20;;;;;;;19.27;68.74;98101.25;262894;1089;22838;-75
2021/08/08 03:35:50;;;;;;;0.30;0.30;;;;;;;19.04;69.29;98114.03;262702;1088;22806;-75
2021/08/08 03:40:53;;;;;;;0.70;0.40;;;;;;;18.85;69.57;98112.13;262830;1088;22806;-75
2021/08/08 03:45:57;;;;;;;0.45;0.45;;;;;;;18.70;70.79;98106.41;262885;1090;27105;-75
2021/08/08 03:51:01;;;;;;;1.20;0.40;;;;;;;18.53;71.46;98115.00;262529;1090;23641;-75
2021/08/08 03:56:05;;;;;;;0.83;0.50;;;;;;;18.35;72.13;98114.64;262808;1090;27263;-75
2021/08/08 04:01:08;;;;;;;0.73;0.40;;;;;;;18.25;72.57;98111.34;263000;1089;25973;-75
2021/08/08 04:06:12;;;;;;;0.60;0.40;;;;;;;18.23;72.76;98105.50;262941;1089;25350;-75
2021/08/08 04:11:15;;;;;;;0.83;0.57;;;;;;;18.27;72.29;98100.94;262930;1089;24304;-76
2021/08/08 04:16:19;;;;;;;0.60;0.60;;;;;;;18.30;72.18;98121.14;262939;1089;22796;-75
2021/08/08 04:21:22;;;;;;;0.80;0.60;;;;;;;18.35;72.39;98136.33;262831;1089;22779;-76
2021/08/08 04:26:26;;;;;;;0.70;0.50;;;;;;;18.29;72.40;98152.86;262984;1090;24358;-75
2021/08/08 04:31:29;;;;;;;0.90;0.60;;;;;;;18.23;72.56;98164.34;262796;1090;22824;-74
2021/08/08 04:36:37;;;;;;;0.40;0.40;;;;;;;18.25;72.83;98167.49;262938;1089;22778;-75
2021/08/08 04:41:42;;;;;;;0.60;0.55;;;;;;;18.27;72.97;98173.33;262913;1088;22807;-76
2021/08/08 04:46:45;;;;;;;1.40;0.60;;;;;;;18.30;73.25;98175.36;262862;1090;22911;-75
2021/08/08 04:51:49;;;;;;;0.40;0.40;;;;;;;18.29;73.44;98182.69;262984;1089;22934;-74
2021/08/08 04:56:58;;;;;;;0.40;0.40;;;;;;;18.22;73.71;98201.52;262758;1090;25893;-75
2021/08/08 05:02:20;;;;;;;1.53;0.60;;;;;;;18.16;74.11;98208.36;262666;1090;22857;-75
2021/08/08 05:07:25;;;;;;;0.90;0.40;;;;;;;18.12;74.40;98216.39;262733;1089;22805;-75
2021/08/08 05:12:29;;;;;;;0.40;0.40;;;;;;;18.11;74.70;98222.17;263014;1089;26009;-74
2021/08/08 05:17:38;;;;;;;1.55;0.60;;;;;;;18.05;75.12;98237.14;263040;1090;22780;-76
2021/08/08 05:22:43;;;;;;;0.50;0.50;;;;;;;17.94;75.64;98236.88;263062;1090;25780;-76
2021/08/08 05:27:46;;;;;;;0.50;0.50;;;;;;;17.74;76.17;98252.20;263023;1089;27532;-77
2021/08/08 05:32:50;;;;;;;0.60;0.40;;;;;;;17.54;77.21;98260.22;263191;1089;26042;-75
2021/08/08 05:37:54;;;;;;;0.60;0.60;;;;;;;17.50;77.05;98266.68;263090;1090;22968;-75
2021/08/08 05:43:19;;;;;;;0.50;0.50;;;;;;;17.51;77.42;98287.99;262809;1089;25781;-75
2021/08/08 05:48:48;;;;;;;1.10;0.60;;;;;;;17.61;78.05;98292.12;262953;1090;23108;-76
2021/08/08 05:53:53;;;;;;;0.80;0.60;;;;;;;17.76;77.55;98296.00;262971;1089;22930;-74
2021/08/08 05:58:58;;;;;;;0.50;0.50;;;;;;;17.88;77.55;98300.54;262946;1089;25516;-75
2021/08/08 06:04:02;;;;;;;0.40;0.40;;;;;;;17.90;77.35;98311.83;262918;1088;22946;-75
2021/08/08 06:09:13;;;;;;;0.70;0.60;;;;;;;17.99;77.20;98314.39;262877;1089;27087;-73
2021/08/08 06:14:24;;;;;;;0.67;0.57;;;;;;;17.99;76.72;98314.39;263001;1090;22792;-75
2021/08/08 06:19:46;;;;;;;0.30;0.30;;;;;;;17.95;77.05;98317.81;263018;1090;22770;-75
2021/08/08 06:24:56;;;;;;;0.93;0.50;;;;;;;17.93;77.31;98324.70;262748;1088;26025;-76
2021/08/08 06:30:15;;;;;;;0.50;0.50;;;;;;;18.06;77.29;98325.41;262988;1089;23356;-75
2021/08/08 06:35:18;;;;;;;0.40;0.40;;;;;;;18.18;77.02;98346.24;262954;1089;27115;-75
2021/08/08 06:40:21;;;;;;;0.50;0.40;;;;;;;18.26;76.57;98345.28;263097;1089;22899;-75
2021/08/08 06:45:25;;;;;;;1.07;0.40;;;;;;;18.30;76.18;98340.73;263218;1090;22771;-76
2021/08/08 06:50:30;;;;;;;0.75;0.50;;;;;;;18.42;76.59;98343.34;263039;1089;28257;-76
2021/08/08 06:55:36;;;;;;;0.60;0.60;;;;;;;18.50;76.53;98344.30;263232;1090;24348;-74
2021/08/08 07:00:39;;;;;;;0.70;0.60;;;;;;;18.66;76.01;98359.77;262816;1088;22813;-74
2021/08/08 07:05:48;;;;;;;0.70;0.70;;;;;;;18.83;75.66;98343.13;262820;1090;26020;-76
2021/08/08 07:10:52;;;;;;;0.90;0.60;;;;;;;19.12;75.53;98339.11;262902;1089;26280;-74
2021/08/08 07:16:09;;;;;;;0.60;0.60;;;;;;;19.28;74.76;98341.00;263095;1089;26024;-76
2021/08/08 07:21:28;;;;;;;1.10;0.80;;;;;;;19.57;74.86;98361.37;263062;1089;22779;-75
2021/08/08 07:26:47;;;;;;;0.60;0.60;;;;;;;19.81;73.86;98354.86;263074;1089;27108;-75
2021/08/08 07:31:51;;;;;;;0.90;0.77;;;;;;;20.22;73.45;98361.78;263059;1088;25896;-75
2021/08/08 07:36:56;;;;;;;1.07;0.70;;;;;;;20.41;72.41;98348.12;262784;1090;22866;-75
2021/08/08 07:41:59;;;;;;;0.60;0.60;;;;;;;20.50;71.32;98367.67;263036;1089;22809;-75
2021/08/08 07:47:02;;;;;;;0.73;0.60;;;;;;;20.67;70.54;98369.13;262868;1090;22810;-74
2021/08/08 07:52:06;;;;;;;0.50;0.50;;;;;;;20.84;70.09;98339.83;262764;1090;25743;-74
2021/08/08 07:57:22;;;;;;;1.03;0.88;;;;;;;20.79;69.38;98331.97;262958;1089;24348;-75
2021/08/08 08:02:26;;;;;;;0.73;0.60;;;;;;;20.70;69.61;98355.95;262920;1089;25803;-75
2021/08/08 08:07:31;;;;;;;0.95;0.80;;;;;;;20.74;69.46;98351.35;262955;1089;22837;-74
2021/08/08 08:12:39;;;;;;;0.65;0.65;;;;;;;20.96;68.96;98357.89;263019;1089;26143;-74
2021/08/08 08:17:44;;;;;;;1.00;0.60;;;;;;;21.20;67.97;98394.78;262667;1090;22788;-74
2021/08/08 08:22:48;;;;;;;1.53;0.80;;;;;;;21.26;67.17;98396.02;263150;1089;26802;-75
2021/08/08 08:27:51;;;;;;;1.40;1.08;;;;;;;21.27;67.91;98405.77;263088;1088;22799;-74
2021/08/08 08:32:55;;;;;;;1.30;1.13;;;;;;;21.30;67.38;98412.42;262811;1089;22861;-74
2021/08/08 08:38:16;;;;;;;1.40;1.00;;;;;;;21.34;67.81;98415.98;263160;1088;27512;-74
2021/08/08 08:43:28;;;;;;;1.08;0.95;;;;;;;21.26;66.55;98398.73;262925;1090;22800;-74
2021/08/08 08:48:33;;;;;;;1.23;0.50;;;;;;;21.15;66.69;98395.89;262570;1088;23334;-74
2021/08/08 08:53:37;;;;;;;0.80;0.80;;;;;;;21.27;66.99;98449.34;262950;1090;27544;-75
2021/08/08 08:58:41;;;;;;;1.78;0.85;;;;;;;21.69;66.43;98444.87;262922;1089;22790;-74
2021/08/08 09:03:47;;;;;;;1.33;0.83;;;;;;;21.91;65.67;98453.28;262542;1089;22809;-75
2021/08/08 09:08:51;;;;;;;0.85;0.70;;;;;;;22.37;65.04;98462.01;263095;1089;26028;-74
2021/08/08 09:13:57;;;;;;;0.90;0.83;;;;;;;22.54;62.54;98462.56;262918;1088;25876;-74
2021/08/08 09:19:20;;;;;;;1.00;0.60;;;;;;;22.32;63.17;98475.17;263174;1089;22854;-74
2021/08/08 09:24:36;;;;;;;0.70;0.70;;;;;;;22.26;64.10;98471.20;263150;1090;25970;-74
2021/08/08 09:29:45;;;;;;;1.17;1.07;;;;;;;22.48;63.35;98480.42;262947;1088;22629;-73
2021/08/08 09:34:54;;;;;;;1.27;1.17;;;;;;;22.39;63.01;98467.86;264538;1090;22751;-74
2021/08/08 09:39:58;;;;;;;0.85;0.80;;;;;;;22.70;62.86;98475.95;262928;1089;22804;-74
2021/08/08 09:45:06;;;;;;;0.70;0.70;;;;;;;22.69;61.14;98497.02;262703;1090;22733;-74
2021/08/08 09:50:17;;;;;;;2.65;1.60;;;;;;;22.73;62.69;98489.64;262478;1090;22766;-74
2021/08/08 09:55:31;;;;;;;1.28;0.85;;;;;;;22.67;61.58;98493.86;262672;1090;24107;-74
2021/08/08 10:00:37;;;;;;;2.40;1.40;;;;;;;22.44;61.03;98493.24;263044;1090;22923;-75
2021/08/08 10:05:45;;;;;;;0.70;0.70;;;;;;;22.45;61.55;98467.53;263047;1090;22770;-74
2021/08/08 10:10:53;;;;;;;1.55;1.45;;;;;;;22.59;61.16;98469.61;262737;1090;23810;-75
2021/08/08 10:15:59;;;;;;;2.65;2.40;;;;;;;22.81;60.87;98459.66;262916;1090;22934;-74
2021/08/08 10:21:05;;;;;;;3.00;2.70;;;;;;;22.94;59.15;98449.22;263080;1089;22792;-73
2021/08/08 10:26:16;;;;;;;1.58;1.33;;;;;;;23.07;59.00;98451.27;262963;1088;23584;-74
2021/08/08 10:31:41;;;;;;;3.90;3.55;;;;;;;23.38;57.78;98454.61;262851;1088;22957;-74
2021/08/08 10:37:12;;;;;;;1.08;1.08;;;;;;;23.69;58.41;98455.14;262845;1090;23027;-74
2021/08/08 10:42:17;;;;;;;5.25;4.70;;;;;;;23.53;56.40;98460.94;263003;1089;22824;-73
2021/08/08 10:47:30;;;;;;;11.60;10.58;;;;;;;23.50;56.96;98472.62;262908;1090;25926;-74
2021/08/08 10:52:41;;;;;;;1.55;1.20;;;;;;;23.79;57.78;98463.78;263067;1088;22785;-73
2021/08/08 10:57:43;;;;;;;1.65;1.55;;;;;;;24.14;57.04;98476.05;262753;1089;22825;-74
2021/08/08 11:02:48;;;;;;;23.58;20.78;;;;;;;24.07;56.97;98488.52;262910;1088;22965;-74
2021/08/08 11:07:55;;;;;;;1.45;1.33;;;;;;;24.06;55.96;98497.92;262572;1089;25706;-74
2021/08/08 11:12:57;;;;;;;1.48;0.90;;;;;;;24.29;56.45;98499.55;262805;1089;24300;-74
2021/08/08 11:18:02;;;;;;;1.40;1.30;;;;;;;24.57;54.63;98498.03;262945;1089;22937;-75
2021/08/08 11:23:05;;;;;;;0.93;0.93;;;;;;;25.08;54.97;98507.84;262966;1090;22777;-74
2021/08/08 11:28:10;;;;;;;0.90;0.90;;;;;;;25.20;51.84;98506.67;262846;1090;22975;-74
2021/08/08 11:33:15;;;;;;;1.03;1.00;;;;;;;24.96;52.91;98507.46;262972;1088;25934;-73
2021/08/08 11:38:20;;;;;;;2.55;1.88;;;;;;;24.83;53.84;98502.37;262958;1089;22915;-73
2021/08/08 11:43:33;;;;;;;1.10;1.10;;;;;;;24.81;54.24;98510.20;262931;1089;23359;-74
2021/08/08 11:48:38;;;;;;;1.13;1.13;;;;;;;24.96;54.50;98500.05;262893;1089;22778;-74
2021/08/08 11:53:42;;;;;;;1.00;1.00;;;;;;;25.15;54.26;98506.30;262800;1090;22903;-75
2021/08/08 11:58:52;;;;;;;1.30;1.20;;;;;;;25.50;54.27;98502.73;262918;1088;22910;-74
2021/08/08 12:04:07;;;;;;;1.23;1.13;;;;;;;25.55;51.63;98512.53;262999;1088;22836;-74
2021/08/08 12:09:27;;;;;;;0.98;0.98;;;;;;;25.56;51.04;98516.81;262912;1088;22937;-73
2021/08/08 12:14:45;;;;;;;0.63;0.63;;;;;;;25.64;51.40;98523.84;262521;1090;24440;-73
2021/08/08 12:19:54;;;;;;;1.00;0.90;;;;;;;25.65;51.17;98524.65;262844;1090;27216;-73
2021/08/08 12:25:06;;;;;;;;;;;;;;;25.65;50.27;98525.42;262908;1089;22773;-72
2021/08/08 12:30:15;;;;;;;2.27;1.63;;;;;;;25.64;51.56;98515.63;262743;1089;24861;-73
2021/08/08 12:35:21;;;;;;;0.70;0.70;;;;;;;25.56;50.67;98514.08;263103;1090;25857;-73
2021/08/08 12:40:24;;;;;;;0.60;0.60;;;;;;;25.17;50.23;98526.66;263117;1088;24043;-73
2021/08/08 12:45:35;;;;;;;2.25;0.70;;;;;;;25.35;51.78;98523.92;262950;1089;22783;-74
2021/08/08 12:50:41;;;;;;;0.63;0.63;;;;;;;25.70;51.17;98533.25;262666;1089;26439;-74
2021/08/08 12:55:44;;;;;;;0.70;0.70;;;;;;;25.79;50.49;98539.09;263150;1090;26299;-74
2021/08/08 13:00:47;;;;;;;1.58;1.43;;;;;;;25.83;49.60;98546.52;262976;1089;22888;-73
2021/08/08 13:05:50;;;;;;;0.70;0.70;;;;;;;25.75;49.42;98529.31;262926;1089;22799;-73
2021/08/08 13:10:54;;;;;;;1.40;1.30;;;;;;;25.69;49.04;98533.66;262697;1090;22802;-75
2021/08/08 13:15:59;;;;;;;0.88;0.80;;;;;;;25.75;50.10;98532.83;262988;1089;26018;-73
2021/08/08 13:21:03;;;;;;;1.05;1.05;;;;;;;25.81;49.32;98535.95;263011;1088;24068;-73
2021/08/08 13:26:06;;;;;;;1.58;0.70;;;;;;;26.12;49.40;98534.30;263061;1089;25777;-73
2021/08/08 13:31:10;;;;;;;0.88;0.88;;;;;;;26.04;48.09;98530.02;262901;1089;25441;-74
2021/08/08 13:36:13;;;;;;;1.38;1.28;;;;;;;25.84;47.72;98534.38;262925;1090;24333;-73
2021/08/08 13:41:16;;;;;;;1.03;0.60;;;;;;;25.79;48.48;98535.58;262860;1089;22926;-74
2021/08/08 13:46:20;;;;;;;2.28;2.08;;;;;;;25.68;47.89;98527.36;263043;1090;22842;-73
2021/08/08 13:51:24;;;;;;;1.13;1.10;;;;;;;25.56;48.44;98533.27;263116;1089;25852;-73
2021/08/08 13:56:28;;;;;;;0.90;0.90;;;;;;;25.54;47.95;98533.67;262695;1089;22886;-73
2021/08/08 14:01:38;;;;;;;0.85;0.78;;;;;;;25.70;47.89;98527.77;262662;1089;25877;-74
2021/08/08 14:07:01;;;;;;;1.30;1.20;;;;;;;25.75;48.05;98523.83;262773;1089;24357;-74
2021/08/08 14:12:06;;;;;;;0.83;0.80;;;;;;;25.74;47.98;98536.77;262921;1088;23584;-73
2021/08/08 14:17:10;;;;;;;0.80;0.80;;;;;;;25.51;47.24;98531.72;262987;1090;22873;-73
2021/08/08 14:22:13;;;;;;;1.23;1.13;;;;;;;25.58;47.75;98528.95;263025;1089;23340;-73
2021/08/08 14:27:31;;;;;;;0.95;0.95;;;;;;;25.71;47.90;98518.34;262928;1089;22786;-73
2021/08/08 14:32:45;;;;;;;0.98;0.98;;;;;;;25.83;46.92;98525.38;263096;1089;22827;-73
2021/08/08 14:38:04;;;;;;;1.10;1.10;;;;;;;25.90;47.36;98519.86;262951;1090;25271;-74
2021/08/08 14:43:27;;;;;;;0.97;0.80;;;;;;;25.96;47.00;98528.45;262876;1088;22864;-73
2021/08/08 14:49:23;;;;;;;1.03;0.93;;;;;;;26.08;46.24;98544.52;262880;1089;24354;-73
2021/08/08 14:54:41;;;;;;;1.25;0.90;;;;;;;26.03;46.96;98544.14;262792;1089;25899;-73
2021/08/08 14:59:46;;;;;;;0.83;0.83;;;;;;;25.94;48.28;98533.57;262866;1090;25886;-72
2021/08/08 15:04:51;;;;;;;0.90;0.90;;;;;;;25.85;47.74;98544.95;262835;1089;24719;-73
2021/08/08 15:10:08;;;;;;;1.30;0.90;;;;;;;25.71;48.04;98551.25;262910;1090;25839;-73
2021/08/08 15:15:12;;;;;;;1.30;1.20;;;;;;;25.70;47.89;98546.97;262988;1090;25903;-73
2021/08/08 15:20:15;;;;;;;1.70;1.10;;;;;;;25.70;48.35;98544.23;262920;1089;22838;-72
2021/08/08 15:25:19;;;;;;;1.38;0.93;;;;;;;25.71;47.77;98548.52;262925;1089;22976;-73
2021/08/08 15:30:24;;;;;;;1.20;1.20;;;;;;;25.69;48.11;98548.14;262943;1088;22775;-73
2021/08/08 15:35:27;;;;;;;0.95;0.95;;;;;;;25.78;48.82;98551.27;262962;1088;26248;-73
2021/08/08 15:40:30;;;;;;;2.23;1.60;;;;;;;25.89;48.75;98562.19;262951;1090;25873;-72
2021/08/08 15:46:07;;;;;;;1.43;1.10;;;;;;;25.98;48.10;98567.27;262856;1089;22956;-72
2021/08/08 15:51:30;;;;;;;1.70;1.60;;;;;;;26.13;48.34;98559.77;262630;1089;24106;-73
2021/08/08 15:56:33;;;;;;;1.40;1.30;;;;;;;26.07;48.74;98566.88;262906;1090;22779;-73
2021/08/08 16:01:51;;;;;;;1.58;1.43;;;;;;;25.58;49.21;98556.38;262915;1089;23428;-72
2021/08/08 16:07:14;;;;;;;1.30;1.20;;;;;;;25.04;49.31;98564.63;262880;1089;24927;-72
2021/08/08 16:12:17;;;;;;;1.40;1.30;;;;;;;24.72;50.19;98564.58;262687;1089;25752;-73
2021/08/08 16:17:23;;;;;;;1.00;1.00;;;;;;;24.44;51.19;98568.78;263131;1089;24156;-73
2021/08/08 16:22:26;;;;;;;1.38;1.08;;;;;;;24.39;51.77;98569.95;263014;1088;24561;-72
2021/08/08 16:27:29;;;;;;;0.90;0.90;;;;;;;24.30;52.18;98564.03;263202;1089;23024;-72
2021/08/08 16:32:33;;;;;;;1.20;1.10;;;;;;;24.16;52.70;98562.06;263112;1089;24303;-72
2021/08/08 16:37:37;;;;;;;1.23;1.13;;;;;;;23.98;53.05;98572.12;262933;1089;22819;-72
2021/08/08 16:42:40;;;;;;;2.05;1.50;;;;;;;23.71;53.32;98564.94;262807;1090;22956;-73
2021/08/08 16:47:43;;;;;;;1.70;1.20;;;;;;;23.50;54.26;98570.25;262687;1089;22789;-72
2021/08/08 16:52:46;;;;;;;1.60;1.50;;;;;;;23.27;54.69;98563.06;262919;1090;25800;-72
2021/08/08 16:58:03;;;;;;;1.93;1.50;;;;;;;23.15;55.83;98555.16;262953;1089;23357;-73
2021/08/08 17:03:19;;;;;;;2.20;1.17;;;;;;;22.99;56.84;98552.66;262604;1088;24246;-73
2021/08/08 17:08:37;;;;;;;2.73;1.48;;;;;;;22.81;57.51;98558.73;262811;1088;25906;-73
2021/08/08 17:13:57;;;;;;;3.07;1.40;;;;;;;22.66;57.50;98546.88;262537;1090;24327;-72
2021/08/08 17:19:00;;;;;;;1.63;1.40;;;;;;;22.61;57.69;98544.51;262982;1089;24209;-73
2021/08/08 17:24:05;;;;;;;4.63;2.75;;;;;;;22.56;58.43;98536.65;263113;1089;22917;-73
2021/08/08 17:29:08;;;;;;;1.45;1.35;;;;;;;22.46;58.53;98554.48;262457;1089;22863;-72
2021/08/08 17:34:11;;;;;;;1.33;1.20;;;;;;;22.36;58.86;98577.77;262630;1090;25892;-72
2021/08/08 17:39:15;;;;;;;2.05;1.38;;;;;;;22.24;58.93;98575.25;262859;1090;22792;-72
2021/08/08 17:44:18;;;;;;;2.03;1.30;;;;;;;22.08;58.91;98591.02;262995;1089;24354;-72
2021/08/08 17:49:21;;;;;;;3.85;1.68;;;;;;;21.87;59.18;98584.91;262886;1089;24491;-73
2021/08/08 17:54:25;;;;;;;4.75;1.60;;;;;;;21.69;59.53;98587.38;263131;1089;22957;-72
2021/08/08 17:59:37;;;;;;;2.35;1.60;;;;;;;21.57;59.98;98597.71;262865;1088;24354;-72
2021/08/08 18:04:41;;;;;;;1.90;1.47;;;;;;;21.49;60.78;98594.05;263103;1089;22783;-72
2021/08/08 18:09:44;;;;;;;1.37;1.27;;;;;;;21.35;60.79;98597.36;262918;1090;22581;-72
2021/08/08 18:14:50;;;;;;;2.13;1.93;;;;;;;21.19;61.04;98600.20;262882;1089;23379;-73
2021/08/08 18:19:57;;;;;;;2.27;1.70;;;;;;;21.03;61.01;98583.98;262965;1089;23346;-72
2021/08/08 18:25:01;;;;;;;1.10;1.00;;;;;;;20.89;61.64;98600.05;263104;1089;25849;-72
2021/08/08 18:30:06;;;;;;;1.57;1.47;;;;;;;20.76;62.16;98608.41;262945;1090;22859;-72
2021/08/08 18:35:11;;;;;;;3.50;2.30;;;;;;;20.66;63.11;98600.78;262843;1089;22779;-72
2021/08/08 18:40:14;;;;;;;3.20;2.10;;;;;;;20.56;63.19;98602.16;262597;1090;22955;-72
2021/08/08 18:45:28;;;;;;;2.08;1.18;;;;;;;20.51;63.70;98632.39;262823;1090;23317;-72
2021/08/08 18:50:35;;;;;;;1.40;1.30;;;;;;;20.47;63.83;98640.47;262795;1089;24766;-73
2021/08/08 18:55:37;;;;;;;1.53;1.33;;;;;;;20.44;64.02;98632.22;262917;1090;22774;-73
2021/08/08 19:00:41;;;;;;;2.80;1.45;;;;;;;20.43;64.25;98647.77;262909;1089;25916;-72
2021/08/08 19:05:45;;;;;;;2.30;1.70;;;;;;;20.42;64.75;98645.41;262943;1088;22787;-73
2021/08/08 19:10:49;;;;;;;1.30;1.20;;;;;;;20.43;64.99;98650.48;262583;1090;22779;-73
2021/08/08 19:15:54;;;;;;;1.40;1.30;;;;;;;20.41;65.10;98638.38;262903;1089;22853;-73
2021/08/08 19:20:57;;;;;;;2.10;1.30;;;;;;;20.37;65.39;98653.84;262745;1089;24180;-72
2021/08/08 19:26:00;;;;;;;2.67;1.63;;;;;;;20.34;65.32;98652.62;263007;1090;22825;-71
2021/08/08 19:31:10;;;;;;;1.70;1.60;;;;;;;20.37;65.43;98675.60;262924;1089;22831;-72
2021/08/08 19:36:15;;;;;;;2.37;1.87;;;;;;;20.42;65.70;98669.89;263014;1090;22799;-72
2021/08/08 19:41:19;;;;;;;2.23;1.90;;;;;;;20.45;65.79;98677.33;263074;1089;26038;-73
2021/08/08 19:46:23;;;;;;;4.07;1.97;;;;;;;20.41;65.65;98682.72;262911;1088;22862;-73
2021/08/08 19:51:26;;;;;;;4.60;2.10;;;;;;;20.41;65.99;98681.91;262855;1089;25791;-73
2021/08/08 19:56:29;;;;;;;2.10;1.90;;;;;;;20.41;66.13;98688.16;262903;1090;23062;-73
2021/08/08 20:01:32;;;;;;;3.43;2.60;;;;;;;20.33;66.29;98700.80;262838;1090;22845;-72
2021/08/08 20:06:37;;;;;;;3.87;2.40;;;;;;;20.28;67.34;98716.61;263187;1088;25887;-72
2021/08/08 20:11:40;;;;;;;3.73;1.97;;;;;;;20.20;67.09;98742.84;262821;1088;22803;-72
2021/08/08 20:16:44;;;;;;;3.90;2.20;;;;;;;20.07;67.23;98763.14;262877;1089;24326;-72
2021/08/08 20:22:01;;;;;;;3.55;2.50;;;;;;;19.99;67.77;98715.95;262990;1089;26015;-72
2021/08/08 20:27:20;;;;;;;3.17;2.30;;;;;;;19.94;68.46;98708.86;262673;1090;26040;-72
2021/08/08 20:32:25;;;;;;;3.30;2.00;;;;;;;19.91;69.47;98715.00;263067;1090;22777;-73
2021/08/08 20:37:28;;;;;;;2.63;2.17;;;;;;;19.79;69.82;98737.61;262833;1089;22787;-73
2021/08/08 20:42:32;;;;;;;3.15;2.30;;;;;;;19.66;70.44;98723.30;262930;1090;22944;-73
2021/08/08 20:47:37;;;;;;;3.55;2.70;;;;;;;19.61;71.58;98733.64;262897;1090;23227;-73
2021/08/08 20:52:42;;;;;;;3.40;1.80;;;;;;;19.47;71.92;98764.75;262970;1089;22785;-73
2021/08/08 20:57:45;;;;;;;2.10;1.80;;;;;;;19.21;72.36;98783.41;262873;1089;24360;-73
2021/08/08 21:02:53;;;;;;;4.05;2.60;;;;;;;19.00;73.66;98806.13;262992;1088;27304;-72
2021/08/08 21:07:58;;;;;;;2.83;2.03;;;;;;;18.80;74.09;98810.53;262893;1089;22834;-73
2021/08/08 21:13:06;;;;;;;1.95;1.75;;;;;;;18.68;74.39;98786.94;262920;1090;25899;-72
2021/08/08 21:18:11;;;;;;;2.00;1.45;;;;;;;18.59;75.05;98789.78;262634;1089;22785;-73
2021/08/08 21:23:14;;;;;;;1.30;1.20;;;;;;;18.52;75.05;98764.35;262908;1088;24394;-73
2021/08/08 21:28:18;;;;;;;1.45;1.20;;;;;;;18.50;75.20;98747.64;262903;1089;26295;-73
2021/08/08 21:33:21;;;;;;;2.20;1.35;;;;;;;18.48;75.13;98756.09;263037;1088;22773;-72
2021/08/08 21:38:25;;;;;;;1.95;1.40;;;;;;;18.44;75.49;98776.92;262917;1090;22953;-72
2021/08/08 21:43:32;;;;;;;2.70;1.30;;;;;;;18.38;76.01;98767.42;262852;1090;22775;-72
2021/08/08 21:48:35;;;;;;;1.45;1.35;;;;;;;18.41;76.33;98745.03;262900;1090;24365;-73
2021/08/08 21:53:39;;;;;;;1.90;1.30;;;;;;;18.44;76.65;98755.22;262887;1089;25894;-73
2021/08/08 21:58:42;;;;;;;2.10;1.50;;;;;;;18.32;76.79;98780.42;262945;1089;22949;-73
2021/08/08 22:03:45;;;;;;;1.25;1.10;;;;;;;18.18;77.09;98791.60;262879;1090;22860;-73
2021/08/08 22:08:52;;;;;;;1.80;1.60;;;;;;;18.05;78.00;98836.11;263026;1088;22782;-73
2021/08/08 22:13:56;;;;;;;2.35;1.30;;;;;;;17.96;78.53;98849.73;262859;1090;22995;-73
2021/08/08 22:18:59;;;;;;;1.40;1.20;;;;;;;17.83;79.27;98873.27;262624;1090;24408;-73
2021/08/08 22:24:02;;;;;;;1.73;1.15;;;;;;;17.75;79.11;98858.70;262880;1089;22782;-72
2021/08/08 22:29:08;;;;;;;3.47;1.40;;;;;;;17.79;79.36;98853.39;262807;1090;25777;-73
2021/08/08 22:34:11;;;;;;;3.50;1.75;;;;;;;17.85;79.72;98845.84;262986;1090;25883;-74
2021/08/08 22:39:15;;;;;;;5.05;1.30;;;;;;;17.89;79.96;98850.27;262612;1088;22798;-73
2021/08/08 22:44:20;;;;;;;2.40;1.55;;;;;;;17.91;79.69;98831.77;262883;1089;22754;-73
2021/08/08 22:49:24;;;;;;;2.05;1.30;;;;;;;17.92;79.75;98813.59;263124;1090;23222;-73
2021/08/08 22:54:27;;;;;;;2.20;1.50;;;;;;;17.91;80.01;98753.19;262774;1090;27061;-73
2021/08/08 22:59:31;;;;;;;3.10;1.80;;;;;;;17.86;80.13;98785.89;262799;1089;22786;-72
2021/08/08 23:04:34;;;;;;;3.73;2.27;;;;;;;17.88;80.73;98818.06;262861;1088;24048;-72
2021/08/08 23:09:37;;;;;;;2.20;1.60;;;;;;;17.75;80.45;98871.44;262933;1090;26274;-72
2021/08/08 23:14:41;;;;;;;2.75;1.80;;;;;;;17.54;80.75;98879.59;262567;1089;27099;-73
2021/08/08 23:19:45;;;;;;;2.33;1.60;;;;;;;17.31;81.00;98898.90;263012;1089;23885;-74
2021/08/08 23:25:06;;;;;;;2.45;1.40;;;;;;;17.15;81.69;98878.95;262848;1088;24335;-71
2021/08/08 23:30:10;;;;;;;2.90;1.65;;;;;;;16.99;81.90;98890.35;263049;1089;22773;-72
2021/08/08 23:35:13;;;;;;;2.25;1.70;;;;;;;16.89;82.28;98874.51;262813;1089;25924;-72
2021/08/08 23:40:16;;;;;;;3.10;1.60;;;;;;;16.77;82.49;98875.17;262829;1089;22826;-73
2021/08/08 23:45:20;;;;;;;1.50;1.40;;;;;;;16.68;82.88;98859.00;262916;1089;22916;-72
2021/08/08 23:50:30;;;;;;;3.20;1.40;;;;;;;16.58;82.89;98870.98;262889;1090;22817;-72
2021/08/08 23:55:41;;;;;;;2.10;1.50;;;;;;;16.48;83.30;98876.77;262809;1089;22809;-72
